Stations météo

réclame
Mon MeteoGroup
Floda, Suède (2476): Température de l'air & dewpoint: 08.08.2018 19:00:00 - 14.08.2018 19:00:00 (CEST)Floda, Suède (2476): Vitesse du vent & gusts: 08.08.2018 19:00:00 - 14.08.2018 19:00:00 (CEST)Floda, Suède (2476): Direction du vent: 08.08.2018 19:00:00 - 14.08.2018 19:00:00 (CEST)Floda, Suède (2476): reduced air pressure: 08.08.2018 19:00:00 - 14.08.2018 19:00:00 (CEST)Floda, Suède (2476): Quantités de précipitations: 08.08.2018 19:00:00 - 14.08.2018 19:00:00 (CEST)
Date & Time tt [°C] td [°C] ff [km/h] ff [knt] fx [km/h] fx [knt] dd ppp [hPa] rr [mm]
14.08.2018 19:00:00 - - - - - - - - -
14.08.2018 18:00:00 15,3 11,3 6 3 15 8 NE 1008,5 0,0
14.08.2018 17:00:00 14,9 10,3 5 3 15 8 NNE 1008,9 0,0
14.08.2018 16:00:00 14,6 11,0 4 2 11 6 ENE 1009,3 0,2
14.08.2018 15:00:00 14,2 11,5 7 4 24 13 NE 1009,6 0,2
14.08.2018 14:00:00 14,2 10,4 6 4 24 13 ESE 1009,9 0,5
14.08.2018 13:00:00 15,8 12,7 2 1 16 9 ENE 1009,7 0,6
14.08.2018 12:00:00 17,3 11,1 8 4 16 9 ESE 1009,7 0,0
14.08.2018 11:00:00 17,9 11,5 6 3 11 6 E 1009,8 0,0
14.08.2018 10:00:00 16,4 11,8 3 2 6 4 ENE 1010,0 0,0
14.08.2018 09:00:00 15,5 10,9 2 1 4 2 NE 1010,1 0,0
14.08.2018 08:00:00 13,4 9,3 0 0 3 2 N 1010,0 0,0
14.08.2018 07:00:00 8,2 5,7 0 0 3 2 N 1010,2 0,0
14.08.2018 06:00:00 6,7 3,8 0 0 4 2 N 1010,3 0,0
14.08.2018 05:00:00 6,3 4,1 0 0 4 2 N 1010,4 0,0
14.08.2018 04:00:00 6,5 3,5 0 0 2 1 N 1010,5 0,0
14.08.2018 03:00:00 7,1 4,2 0 0 3 1 N 1010,5 0,0
14.08.2018 02:00:00 7,2 4,0 0 0 3 1 N 1010,6 0,0
14.08.2018 01:00:00 7,9 4,7 0 0 6 4 N 1010,5 0,0
14.08.2018 00:00:00 8,9 5,8 0 0 6 4 N 1010,3 0,0
13.08.2018 23:00:00 9,7 5,9 0 0 3 2 N 1010,0 0,0
13.08.2018 22:00:00 11,0 6,3 0 0 3 2 N 1010,1 0,0
13.08.2018 21:00:00 13,6 8,0 0 0 14 8 N 1009,9 0,0
13.08.2018 20:00:00 17,7 6,5 2 1 23 13 NW 1009,6 0,0
13.08.2018 19:00:00 20,1 5,7 10 5 23 13 NW 1009,6 0,0
13.08.2018 18:00:00 21,7 6,0 8 4 25 13 W 1009,7 0,0
13.08.2018 17:00:00 22,0 6,2 8 5 25 13 W 1009,7 0,0
13.08.2018 16:00:00 21,5 6,0 7 4 21 12 WNW 1009,7 0,0
13.08.2018 15:00:00 21,1 7,0 9 5 22 12 W 1009,8 0,0
13.08.2018 14:00:00 20,3 8,0 12 6 22 12 NNW 1010,2 0,0
13.08.2018 13:00:00 19,4 8,1 8 4 19 11 WNW 1010,3 0,0
13.08.2018 12:00:00 19,0 7,7 8 4 19 10 WNW 1010,5 0,0
13.08.2018 11:00:00 17,8 9,4 7 4 14 8 WNW 1010,4 0,0
13.08.2018 10:00:00 16,0 9,2 3 1 13 7 W 1010,4 0,0
13.08.2018 09:00:00 13,7 10,1 3 2 14 8 NNW 1010,4 0,5
13.08.2018 08:00:00 11,1 9,2 8 5 14 8 NW 1010,3 0,0
13.08.2018 07:00:00 10,4 8,0 2 1 7 4 W 1010,0 0,0
13.08.2018 06:00:00 8,8 6,4 0 0 7 4 N 1009,8 0,0
13.08.2018 05:00:00 9,1 6,2 2 1 9 5 W 1009,8 0,0
13.08.2018 04:00:00 9,0 6,3 2 1 9 5 W 1009,7 0,0
13.08.2018 03:00:00 9,9 7,5 5 3 9 5 W 1009,2 0,0
13.08.2018 02:00:00 10,5 7,6 3 2 9 5 WNW 1009,3 0,0
13.08.2018 01:00:00 11,3 8,2 3 1 9 5 WNW 1009,4 0,0
13.08.2018 00:00:00 11,6 8,6 3 1 6 3 W 1009,4 0,0
12.08.2018 23:00:00 11,7 8,5 0 0 8 5 N 1009,1 0,0
12.08.2018 22:00:00 11,9 8,2 0 0 9 5 N 1009,1 0,0
12.08.2018 21:00:00 12,4 9,0 3 1 19 11 WNW 1008,9 0,0
12.08.2018 20:00:00 12,8 10,0 7 4 19 11 WNW 1008,4 0,0
12.08.2018 19:00:00 13,4 10,6 8 4 20 11 NW 1007,8 0,2
12.08.2018 18:00:00 13,6 10,9 9 5 24 13 WNW 1007,5 0,0
12.08.2018 17:00:00 13,9 11,1 8 4 24 13 WNW 1007,2 0,6
12.08.2018 16:00:00 14,2 11,2 8 4 23 13 W 1006,8 1,5
12.08.2018 15:00:00 13,5 11,2 7 4 32 17 WNW 1006,6 3,4
12.08.2018 14:00:00 13,1 10,6 11 6 32 17 W 1006,3 2,3
12.08.2018 13:00:00 14,3 11,1 15 8 29 16 W 1005,5 0,6
12.08.2018 12:00:00 13,2 10,6 15 8 29 16 W 1005,3 -
12.08.2018 11:00:00 13,9 11,1 8 4 19 10 WNW 1005,0 0,9
12.08.2018 10:00:00 15,3 11,5 7 4 19 10 WNW 1004,5 0,3
12.08.2018 09:00:00 14,1 11,1 5 3 14 8 WNW 1004,3 0,0
12.08.2018 08:00:00 13,0 10,0 3 2 9 5 WNW 1004,3 1,5
12.08.2018 07:00:00 13,2 10,7 4 2 6 3 N 1004,4 0,0
12.08.2018 06:00:00 13,0 10,2 0 0 5 3 N 1004,5 0,0
12.08.2018 05:00:00 12,9 10,3 3 1 5 3 NNW 1005,1 0,4
12.08.2018 04:00:00 12,8 10,3 3 2 5 3 S 1005,8 0,3
12.08.2018 03:00:00 13,1 11,0 2 1 5 3 ENE 1006,3 1,7
12.08.2018 02:00:00 13,3 11,2 4 2 5 3 ENE 1006,9 1,2
12.08.2018 01:00:00 13,7 10,5 0 0 10 5 N 1007,6 0,0
12.08.2018 00:00:00 14,3 11,3 0 0 10 5 N 1008,1 0,0
11.08.2018 23:00:00 14,4 12,1 4 2 9 5 ENE 1009,0 0,0
11.08.2018 22:00:00 14,5 11,1 0 0 9 5 N 1009,8 0,0
11.08.2018 21:00:00 15,0 12,5 3 2 6 3 ENE 1010,2 0,0
11.08.2018 20:00:00 15,7 12,3 0 0 16 9 N 1010,9 0,0
11.08.2018 19:00:00 16,1 11,3 3 1 31 17 SW 1011,4 0,2
11.08.2018 18:00:00 16,8 12,7 4 2 31 17 NE 1011,7 0,2
11.08.2018 17:00:00 21,7 10,2 13 7 31 17 SE 1011,8 0,0
11.08.2018 16:00:00 21,2 7,4 11 6 32 17 WSW 1012,6 0,0
11.08.2018 15:00:00 23,0 6,7 10 5 32 17 WSW 1013,2 0,0
11.08.2018 14:00:00 23,5 6,7 15 8 32 17 SW 1013,7 0,0
11.08.2018 13:00:00 22,0 5,8 16 9 32 17 SSW 1014,6 0,0
11.08.2018 12:00:00 21,8 8,0 14 7 33 18 WSW 1015,1 0,0
11.08.2018 11:00:00 20,4 8,1 16 9 32 17 SW 1015,4 0,0
11.08.2018 10:00:00 19,3 8,6 20 11 32 17 WSW 1015,2 0,0
11.08.2018 09:00:00 18,0 8,6 19 10 30 16 SW 1015,5 0,0
11.08.2018 08:00:00 16,4 9,6 17 9 29 16 SW 1015,5 0,0
11.08.2018 07:00:00 14,7 9,1 13 7 24 13 SSW 1015,3 0,0
11.08.2018 06:00:00 13,5 8,8 12 7 30 16 SW 1015,0 0,0
11.08.2018 05:00:00 13,8 8,6 17 9 30 16 SSW 1014,6 0,0
11.08.2018 04:00:00 14,2 8,6 14 8 24 13 SSW 1014,4 0,0
11.08.2018 03:00:00 14,1 8,5 15 8 24 13 SSW 1014,3 0,0
11.08.2018 02:00:00 14,3 8,3 12 7 26 14 SSW 1014,3 0,0
11.08.2018 01:00:00 15,1 8,3 15 8 31 17 SSW 1014,2 0,0
11.08.2018 00:00:00 15,8 7,8 16 9 34 19 SSW 1014,0 0,0
10.08.2018 23:00:00 16,5 7,7 13 7 41 22 SSW 1013,8 0,0
10.08.2018 22:00:00 17,2 7,3 22 12 59 32 SW 1013,4 0,0
10.08.2018 21:00:00 18,3 7,4 29 16 59 32 WSW 1012,4 0,0
10.08.2018 20:00:00 19,5 8,8 25 13 52 28 SW 1011,6 0,0
10.08.2018 19:00:00 21,4 9,0 32 18 56 31 SW 1010,8 0,0
10.08.2018 18:00:00 22,3 9,8 30 16 58 31 WSW 1010,3 0,0
10.08.2018 17:00:00 22,9 10,0 35 19 58 31 SW 1009,9 0,0
10.08.2018 16:00:00 24,0 10,3 25 14 56 30 SW 1009,1 0,0
10.08.2018 15:00:00 26,3 11,6 31 17 56 30 SW 1008,3 0,0
10.08.2018 14:00:00 24,7 11,6 34 18 53 28 SSW 1007,9 0,0
10.08.2018 13:00:00 26,8 14,9 23 12 46 25 SSW 1006,9 0,0
10.08.2018 12:00:00 25,4 16,8 25 14 41 22 S 1006,6 0,0
10.08.2018 11:00:00 24,6 18,3 20 11 34 19 SSW 1006,5 0,0
10.08.2018 10:00:00 23,6 19,5 15 8 33 18 S 1006,4 0,0
10.08.2018 09:00:00 22,5 19,1 11 6 24 13 SSE 1006,3 0,0
10.08.2018 08:00:00 19,8 17,6 10 5 42 23 ESE 1006,4 0,2
10.08.2018 07:00:00 19,7 17,8 12 7 42 23 ESE 1007,6 7,2
10.08.2018 06:00:00 19,8 17,4 9 5 18 10 E 1007,5 0,0
10.08.2018 05:00:00 19,1 17,2 7 4 13 7 E 1008,7 0,0
10.08.2018 04:00:00 14,9 12,9 5 3 8 4 E 1009,9 0,0
10.08.2018 03:00:00 14,6 11,4 3 1 5 3 NE 1010,8 0,0
10.08.2018 02:00:00 14,5 11,3 0 0 5 3 N 1011,6 0,0
10.08.2018 01:00:00 15,5 12,1 0 0 5 3 N 1012,4 0,0
10.08.2018 00:00:00 16,2 12,4 0 0 5 3 N 1013,0 0,0
09.08.2018 23:00:00 17,8 13,1 0 0 5 3 N 1013,1 0,0
09.08.2018 22:00:00 18,9 13,7 3 2 5 3 E 1013,1 0,0
09.08.2018 21:00:00 21,8 13,9 0 0 11 6 N 1013,3 0,0
09.08.2018 20:00:00 24,7 13,3 2 1 18 10 S 1013,2 0,0
09.08.2018 19:00:00 26,7 13,1 10 5 22 12 SW 1013,4 0,0
09.08.2018 18:00:00 27,7 13,3 6 3 27 15 SW 1013,5 0,0
09.08.2018 17:00:00 27,9 14,2 14 8 27 15 SSW 1013,4 0,0
09.08.2018 16:00:00 28,0 14,6 14 8 29 16 SW 1013,6 0,0
09.08.2018 15:00:00 27,2 14,6 12 6 33 18 SW 1013,7 0,0
09.08.2018 14:00:00 26,1 14,5 19 10 33 18 WSW 1014,0 0,0
09.08.2018 13:00:00 25,0 15,9 17 9 26 14 SW 1014,1 0,0
09.08.2018 12:00:00 25,0 17,0 10 5 21 11 WSW 1014,0 0,0
09.08.2018 11:00:00 24,6 16,6 7 4 20 11 W 1013,9 0,0
09.08.2018 10:00:00 24,0 17,5 14 7 20 11 WSW 1013,4 0,0
09.08.2018 09:00:00 22,2 17,3 9 5 15 8 W 1013,1 0,0
09.08.2018 08:00:00 19,6 16,1 4 2 11 6 WSW 1012,5 0,0
09.08.2018 07:00:00 19,0 16,0 4 2 10 5 S 1012,4 0,0
09.08.2018 06:00:00 17,8 15,4 5 3 16 9 SE 1012,1 0,0
09.08.2018 05:00:00 18,4 15,5 4 2 16 9 SSE 1012,0 0,0
09.08.2018 04:00:00 17,8 15,4 5 3 12 6 SSE 1011,5 0,0
09.08.2018 03:00:00 18,2 15,3 3 2 24 13 NW 1010,2 0,0
09.08.2018 02:00:00 19,8 16,6 6 3 24 13 E 1010,6 1,4
09.08.2018 01:00:00 21,0 17,2 11 6 22 12 S 1012,7 0,4
09.08.2018 00:00:00 22,7 15,3 6 4 18 10 ESE 1011,1 0,0
08.08.2018 23:00:00 23,2 14,7 6 4 27 15 S 1010,8 0,0
08.08.2018 22:00:00 23,9 15,4 11 6 30 16 SSE 1010,3 0,0
08.08.2018 21:00:00 24,9 15,2 13 7 30 16 SSE 1009,4 0,0
08.08.2018 20:00:00 26,3 14,4 15 8 33 18 SE 1008,8 0,0
08.08.2018 19:00:00 26,6 14,0 13 7 35 19 SE 1008,8 0,0

tt = Température de l'air
td = dewpoint
ff = Vitesse du vent
fx = gusts
dd = Direction du vent
ppp = reduced air pressure
rr = Quantités de précipitations

stations d'obs. à proximité